sensor_id;sensor_type;location;lat;lon;timestamp;pressure;altitude;pressure_sealevel;temperature;humidity
77216;BME280;66210;53.282;9.864;2024-03-25T00:01:01;99455.31;;;4.86;100.00
77216;BME280;66210;53.282;9.864;2024-03-25T00:03:27;99457.09;;;4.88;100.00
77216;BME280;66210;53.282;9.864;2024-03-25T00:05:53;99461.38;;;4.89;100.00
77216;BME280;66210;53.282;9.864;2024-03-25T00:08:18;99459.19;;;4.79;100.00
77216;BME280;66210;53.282;9.864;2024-03-25T00:10:44;99451.28;;;4.71;100.00
77216;BME280;66210;53.282;9.864;2024-03-25T00:13:10;99469.16;;;4.77;100.00
77216;BME280;66210;53.282;9.864;2024-03-25T00:15:36;99476.66;;;4.76;100.00
77216;BME280;66210;53.282;9.864;2024-03-25T00:18:06;99468.66;;;4.67;100.00
77216;BME280;66210;53.282;9.864;2024-03-25T00:20:31;99482.41;;;4.73;100.00
77216;BME280;66210;53.282;9.864;2024-03-25T00:22:57;99484.53;;;4.66;100.00
77216;BME280;66210;53.282;9.864;2024-03-25T00:25:23;99486.28;;;4.67;100.00
77216;BME280;66210;53.282;9.864;2024-03-25T00:27:48;99487.13;;;4.67;100.00
77216;BME280;66210;53.282;9.864;2024-03-25T00:30:14;99488.16;;;4.71;100.00
77216;BME280;66210;53.282;9.864;2024-03-25T00:32:39;99484.41;;;4.63;100.00
77216;BME280;66210;53.282;9.864;2024-03-25T00:35:05;99486.06;;;4.62;100.00
77216;BME280;66210;53.282;9.864;2024-03-25T00:37:31;99492.88;;;4.65;100.00
77216;BME280;66210;53.282;9.864;2024-03-25T00:39:57;99489.44;;;4.63;100.00
77216;BME280;66210;53.282;9.864;2024-03-25T00:42:23;99507.34;;;4.69;100.00
77216;BME280;66210;53.282;9.864;2024-03-25T00:44:48;99505.38;;;4.63;100.00
77216;BME280;66210;53.282;9.864;2024-03-25T00:47:14;99508.75;;;4.64;100.00
77216;BME280;66210;53.282;9.864;2024-03-25T00:49:40;99514.66;;;4.64;100.00
77216;BME280;66210;53.282;9.864;2024-03-25T00:52:05;99518.91;;;4.65;100.00
77216;BME280;66210;53.282;9.864;2024-03-25T00:54:31;99512.06;;;4.63;100.00
77216;BME280;66210;53.282;9.864;2024-03-25T00:56:57;99524.78;;;4.66;100.00
77216;BME280;66210;53.282;9.864;2024-03-25T00:59:22;99528.97;;;4.65;100.00
77216;BME280;66210;53.282;9.864;2024-03-25T01:01:48;99522.34;;;4.67;100.00
77216;BME280;66210;53.282;9.864;2024-03-25T01:04:13;99533.44;;;4.71;100.00
77216;BME280;66210;53.282;9.864;2024-03-25T01:06:39;99531.16;;;4.75;100.00
77216;BME280;66210;53.282;9.864;2024-03-25T01:09:05;99518.41;;;4.72;100.00
77216;BME280;66210;53.282;9.864;2024-03-25T01:11:32;99523.06;;;4.65;100.00
77216;BME280;66210;53.282;9.864;2024-03-25T01:13:57;99520.38;;;4.62;100.00
77216;BME280;66210;53.282;9.864;2024-03-25T01:16:23;99522.75;;;4.58;100.00
77216;BME280;66210;53.282;9.864;2024-03-25T01:18:48;99530.16;;;4.55;100.00
77216;BME280;66210;53.282;9.864;2024-03-25T01:21:14;99532.69;;;4.55;100.00
77216;BME280;66210;53.282;9.864;2024-03-25T01:23:40;99536.06;;;4.56;100.00
77216;BME280;66210;53.282;9.864;2024-03-25T01:26:06;99531.97;;;4.58;100.00
77216;BME280;66210;53.282;9.864;2024-03-25T01:28:32;99539.56;;;4.59;100.00
77216;BME280;66210;53.282;9.864;2024-03-25T01:30:57;99539.56;;;4.59;100.00
77216;BME280;66210;53.282;9.864;2024-03-25T01:33:23;99537.84;;;4.58;100.00
77216;BME280;66210;53.282;9.864;2024-03-25T01:35:49;99538.72;;;4.59;100.00
77216;BME280;66210;53.282;9.864;2024-03-25T01:38:14;99534.63;;;4.61;100.00
77216;BME280;66210;53.282;9.864;2024-03-25T01:40:40;99536.06;;;4.56;100.00
77216;BME280;66210;53.282;9.864;2024-03-25T01:43:06;99539.28;;;4.53;100.00
77216;BME280;66210;53.282;9.864;2024-03-25T01:45:33;99547.91;;;4.58;100.00
77216;BME280;66210;53.282;9.864;2024-03-25T01:48:01;99552.94;;;4.58;100.00
77216;BME280;66210;53.282;9.864;2024-03-25T01:50:28;99551.00;;;4.53;100.00
77216;BME280;66210;53.282;9.864;2024-03-25T01:52:56;99548.47;;;4.53;100.00
77216;BME280;66210;53.282;9.864;2024-03-25T01:55:24;99551.38;;;4.44;100.00
77216;BME280;66210;53.282;9.864;2024-03-25T01:57:52;99564.91;;;4.46;100.00
77216;BME280;66210;53.282;9.864;2024-03-25T02:00:18;99563.16;;;4.45;100.00
77216;BME280;66210;53.282;9.864;2024-03-25T02:02:44;99568.75;;;4.56;100.00
77216;BME280;66210;53.282;9.864;2024-03-25T02:05:11;99568.59;;;4.53;100.00
77216;BME280;66210;53.282;9.864;2024-03-25T02:07:37;99573.63;;;4.53;100.00
77216;BME280;66210;53.282;9.864;2024-03-25T02:10:04;99577.78;;;4.52;100.00
77216;BME280;66210;53.282;9.864;2024-03-25T02:12:36;99575.25;;;4.52;100.00
77216;BME280;66210;53.282;9.864;2024-03-25T02:15:04;99583.69;;;4.53;100.00
77216;BME280;66210;53.282;9.864;2024-03-25T02:17:30;99580.47;;;4.55;100.00
77216;BME280;66210;53.282;9.864;2024-03-25T02:19:56;99581.25;;;4.54;100.00
77216;BME280;66210;53.282;9.864;2024-03-25T02:22:22;99582.31;;;4.59;100.00
77216;BME280;66210;53.282;9.864;2024-03-25T02:24:50;99587.13;;;4.55;100.00
77216;BME280;66210;53.282;9.864;2024-03-25T02:27:18;99593.06;;;4.55;100.00
77216;BME280;66210;53.282;9.864;2024-03-25T02:29:44;99581.19;;;4.53;100.00
77216;BME280;66210;53.282;9.864;2024-03-25T02:32:10;99575.25;;;4.52;100.00
77216;BME280;66210;53.282;9.864;2024-03-25T02:34:37;99576.78;;;4.49;100.00
77216;BME280;66210;53.282;9.864;2024-03-25T02:37:04;99586.13;;;4.35;100.00
77216;BME280;66210;53.282;9.864;2024-03-25T02:39:31;99590.97;;;4.32;100.00
77216;BME280;66210;53.282;9.864;2024-03-25T02:41:57;99590.75;;;4.27;100.00
77216;BME280;66210;53.282;9.864;2024-03-25T02:44:23;99587.38;;;4.27;100.00
77216;BME280;66210;53.282;9.864;2024-03-25T02:46:49;99595.78;;;4.27;100.00
77216;BME280;66210;53.282;9.864;2024-03-25T02:49:15;99597.25;;;4.24;100.00
77216;BME280;66210;53.282;9.864;2024-03-25T02:51:41;99600.56;;;4.23;100.00
77216;BME280;66210;53.282;9.864;2024-03-25T02:54:07;99602.47;;;4.27;100.00
77216;BME280;66210;53.282;9.864;2024-03-25T02:56:34;99596.94;;;4.18;100.00
77216;BME280;66210;53.282;9.864;2024-03-25T02:59:01;99598.41;;;4.14;100.00
77216;BME280;66210;53.282;9.864;2024-03-25T03:01:26;99610.28;;;4.16;100.00
77216;BME280;66210;53.282;9.864;2024-03-25T03:03:52;99612.66;;;4.13;100.00
77216;BME280;66210;53.282;9.864;2024-03-25T03:06:18;99620.09;;;4.12;100.00
77216;BME280;66210;53.282;9.864;2024-03-25T03:08:44;99627.38;;;4.07;100.00
77216;BME280;66210;53.282;9.864;2024-03-25T03:11:10;99627.94;;;4.02;100.00
77216;BME280;66210;53.282;9.864;2024-03-25T03:13:36;99633.47;;;4.11;100.00
77216;BME280;66210;53.282;9.864;2024-03-25T03:16:02;99651.06;;;4.11;100.00
77216;BME280;66210;53.282;9.864;2024-03-25T03:18:28;99640.38;;;4.15;100.00
77216;BME280;66210;53.282;9.864;2024-03-25T03:20:53;99633.63;;;4.14;100.00
77216;BME280;66210;53.282;9.864;2024-03-25T03:23:23;99652.56;;;4.24;100.00
77216;BME280;66210;53.282;9.864;2024-03-25T03:25:48;99663.31;;;4.21;100.00
77216;BME280;66210;53.282;9.864;2024-03-25T03:28:15;99664.44;;;4.26;100.00
77216;BME280;66210;53.282;9.864;2024-03-25T03:30:41;99662.00;;;4.28;100.00
77216;BME280;66210;53.282;9.864;2024-03-25T03:33:07;99665.47;;;4.30;100.00
77216;BME280;66210;53.282;9.864;2024-03-25T03:35:33;99667.13;;;4.29;100.00
77216;BME280;66210;53.282;9.864;2024-03-25T03:37:59;99669.53;;;4.28;100.00
77216;BME280;66210;53.282;9.864;2024-03-25T03:40:25;99669.47;;;4.26;100.00
77216;BME280;66210;53.282;9.864;2024-03-25T03:42:51;99666.16;;;4.27;100.00
77216;BME280;66210;53.282;9.864;2024-03-25T03:45:16;99677.31;;;4.32;100.00
77216;BME280;66210;53.282;9.864;2024-03-25T03:47:42;99674.75;;;4.31;100.00
77216;BME280;66210;53.282;9.864;2024-03-25T03:50:09;99683.31;;;4.34;100.00
77216;BME280;66210;53.282;9.864;2024-03-25T03:52:35;99677.31;;;4.32;100.00
77216;BME280;66210;53.282;9.864;2024-03-25T03:55:00;99681.59;;;4.33;100.00
77216;BME280;66210;53.282;9.864;2024-03-25T03:57:26;99689.91;;;4.32;100.00
77216;BME280;66210;53.282;9.864;2024-03-25T03:59:52;99688.81;;;4.27;100.00
77216;BME280;66210;53.282;9.864;2024-03-25T04:02:17;99687.59;;;4.21;100.00
77216;BME280;66210;53.282;9.864;2024-03-25T04:04:43;99692.53;;;4.19;100.00
77216;BME280;66210;53.282;9.864;2024-03-25T04:07:09;99692.28;;;4.14;100.00
77216;BME280;66210;53.282;9.864;2024-03-25T04:09:34;99697.16;;;4.11;100.00
77216;BME280;66210;53.282;9.864;2024-03-25T04:12:00;99705.66;;;4.13;100.00
77216;BME280;66210;53.282;9.864;2024-03-25T04:14:26;99709.22;;;4.17;100.00
77216;BME280;66210;53.282;9.864;2024-03-25T04:16:52;99700.88;;;4.18;100.00
77216;BME280;66210;53.282;9.864;2024-03-25T04:19:19;99694.66;;;4.11;100.00
77216;BME280;66210;53.282;9.864;2024-03-25T04:21:45;99712.34;;;4.13;100.00
77216;BME280;66210;53.282;9.864;2024-03-25T04:24:11;99706.88;;;4.05;100.00
77216;BME280;66210;53.282;9.864;2024-03-25T04:26:37;99721.25;;;4.08;100.00
77216;BME280;66210;53.282;9.864;2024-03-25T04:29:03;99717.88;;;4.07;100.00
77216;BME280;66210;53.282;9.864;2024-03-25T04:31:28;99721.00;;;4.03;100.00
77216;BME280;66210;53.282;9.864;2024-03-25T04:33:54;99723.44;;;4.02;100.00
77216;BME280;66210;53.282;9.864;2024-03-25T04:36:19;99731.84;;;4.02;100.00
77216;BME280;66210;53.282;9.864;2024-03-25T04:38:45;99723.44;;;4.02;100.00
77216;BME280;66210;53.282;9.864;2024-03-25T04:41:11;99726.66;;;3.99;100.00
77216;BME280;66210;53.282;9.864;2024-03-25T04:43:36;99730.28;;;4.04;100.00
77216;BME280;66210;53.282;9.864;2024-03-25T04:46:02;99735.91;;;4.00;100.00
77216;BME280;66210;53.282;9.864;2024-03-25T04:48:28;99746.06;;;4.02;100.00
77216;BME280;66210;53.282;9.864;2024-03-25T04:50:54;99748.13;;;3.94;100.00
77216;BME280;66210;53.282;9.864;2024-03-25T04:53:20;99743.81;;;3.91;100.00
77216;BME280;66210;53.282;9.864;2024-03-25T04:55:46;99743.28;;;3.97;100.00
77216;BME280;66210;53.282;9.864;2024-03-25T04:58:11;99740.59;;;3.94;100.00
77216;BME280;66210;53.282;9.864;2024-03-25T05:00:37;99756.81;;;3.99;100.00
77216;BME280;66210;53.282;9.864;2024-03-25T05:03:03;99760.09;;;3.98;100.00
77216;BME280;66210;53.282;9.864;2024-03-25T05:05:29;99753.34;;;3.97;100.00
77216;BME280;66210;53.282;9.864;2024-03-25T05:07:55;99748.13;;;3.94;100.00
77216;BME280;66210;53.282;9.864;2024-03-25T05:10:21;99759.84;;;3.93;100.00
77216;BME280;66210;53.282;9.864;2024-03-25T05:12:46;99748.13;;;3.94;100.00
77216;BME280;66210;53.282;9.864;2024-03-25T05:15:15;99764.75;;;3.92;100.00
77216;BME280;66210;53.282;9.864;2024-03-25T05:17:41;99760.44;;;3.89;100.00
77216;BME280;66210;53.282;9.864;2024-03-25T05:20:07;99767.97;;;3.89;100.00
77216;BME280;66210;53.282;9.864;2024-03-25T05:22:32;99751.53;;;3.80;100.00
77216;BME280;66210;53.282;9.864;2024-03-25T05:24:58;99771.34;;;3.90;100.00
77216;BME280;66210;53.282;9.864;2024-03-25T05:27:24;99773.69;;;3.87;100.00
77216;BME280;66210;53.282;9.864;2024-03-25T05:29:50;99782.97;;;3.88;100.00
77216;BME280;66210;53.282;9.864;2024-03-25T05:32:15;99784.28;;;3.81;100.00
77216;BME280;66210;53.282;9.864;2024-03-25T05:34:42;99792.09;;;3.86;100.00
77216;BME280;66210;53.282;9.864;2024-03-25T05:37:08;99784.34;;;3.83;100.00
77216;BME280;66210;53.282;9.864;2024-03-25T05:39:34;99789.47;;;3.84;100.00
77216;BME280;66210;53.282;9.864;2024-03-25T05:42:00;99794.66;;;3.87;100.00
77216;BME280;66210;53.282;9.864;2024-03-25T05:44:25;99788.25;;;3.78;100.00
77216;BME280;66210;53.282;9.864;2024-03-25T05:46:51;99791.81;;;3.81;100.00
77216;BME280;66210;53.282;9.864;2024-03-25T05:49:17;99795.69;;;3.76;100.00
77216;BME280;66210;53.282;9.864;2024-03-25T05:51:43;99796.91;;;3.83;100.00
77216;BME280;66210;53.282;9.864;2024-03-25T05:54:09;99787.66;;;3.82;100.00
77216;BME280;66210;53.282;9.864;2024-03-25T05:56:34;99790.22;;;3.83;100.00
77216;BME280;66210;53.282;9.864;2024-03-25T05:59:00;99796.47;;;3.90;100.00
77216;BME280;66210;53.282;9.864;2024-03-25T06:01:26;99795.63;;;3.89;100.00
77216;BME280;66210;53.282;9.864;2024-03-25T06:03:53;99789.47;;;3.84;100.00
77216;BME280;66210;53.282;9.864;2024-03-25T06:06:19;99793.09;;;3.89;100.00
77216;BME280;66210;53.282;9.864;2024-03-25T06:08:45;99800.75;;;3.91;100.00
77216;BME280;66210;53.282;9.864;2024-03-25T06:11:11;99806.72;;;3.93;100.00
77216;BME280;66210;53.282;9.864;2024-03-25T06:13:37;99811.81;;;3.94;100.00
77216;BME280;66210;53.282;9.864;2024-03-25T06:16:03;99813.47;;;3.94;100.00
77216;BME280;66210;53.282;9.864;2024-03-25T06:18:29;99814.69;;;4.01;100.00
77216;BME280;66210;53.282;9.864;2024-03-25T06:20:54;99823.53;;;4.09;100.00
77216;BME280;66210;53.282;9.864;2024-03-25T06:23:28;99825.97;;;4.07;100.00
77216;BME280;66210;53.282;9.864;2024-03-25T06:25:55;99821.88;;;4.09;100.00
77216;BME280;66210;53.282;9.864;2024-03-25T06:28:21;99823.00;;;4.14;100.00
77216;BME280;66210;53.282;9.864;2024-03-25T06:30:48;99829.94;;;4.19;100.00
77216;BME280;66210;53.282;9.864;2024-03-25T06:33:32;99823.72;;;4.27;100.00
77216;BME280;66210;53.282;9.864;2024-03-25T06:36:17;99832.28;;;4.30;100.00
77216;BME280;66210;53.282;9.864;2024-03-25T06:38:43;99828.19;;;4.32;100.00
77216;BME280;66210;53.282;9.864;2024-03-25T06:41:09;99834.97;;;4.33;100.00
77216;BME280;66210;53.282;9.864;2024-03-25T06:43:39;99841.03;;;4.37;100.00
77216;BME280;66210;53.282;9.864;2024-03-25T06:46:05;99838.78;;;4.42;100.00
77216;BME280;66210;53.282;9.864;2024-03-25T06:48:32;99840.53;;;4.43;100.00
77216;BME280;66210;53.282;9.864;2024-03-25T06:50:59;99845.81;;;4.62;100.00
77216;BME280;66210;53.282;9.864;2024-03-25T06:53:25;99844.91;;;4.76;100.00
77216;BME280;66210;53.282;9.864;2024-03-25T06:55:56;99853.19;;;4.90;100.00
77216;BME280;66210;53.282;9.864;2024-03-25T06:58:23;99857.16;;;5.02;100.00
77216;BME280;66210;53.282;9.864;2024-03-25T07:00:49;99861.47;;;5.04;100.00
77216;BME280;66210;53.282;9.864;2024-03-25T07:03:19;99871.13;;;5.11;100.00
77216;BME280;66210;53.282;9.864;2024-03-25T07:05:47;99872.59;;;5.08;100.00
77216;BME280;66210;53.282;9.864;2024-03-25T07:08:13;99863.13;;;5.04;100.00
77216;BME280;66210;53.282;9.864;2024-03-25T07:10:41;99879.53;;;5.12;100.00
77216;BME280;66210;53.282;9.864;2024-03-25T07:13:07;99876.06;;;5.10;100.00
77216;BME280;66210;53.282;9.864;2024-03-25T07:15:33;99876.94;;;5.10;100.00
77216;BME280;66210;53.282;9.864;2024-03-25T07:17:58;99883.16;;;5.17;100.00
77216;BME280;66210;53.282;9.864;2024-03-25T07:20:26;99882.78;;;5.26;100.00
77216;BME280;66210;53.282;9.864;2024-03-25T07:22:53;99883.19;;;5.33;100.00
77216;BME280;66210;53.282;9.864;2024-03-25T07:25:24;99878.94;;;5.32;100.00
77216;BME280;66210;53.282;9.864;2024-03-25T07:27:50;99886.75;;;5.37;100.00
77216;BME280;66210;53.282;9.864;2024-03-25T07:30:16;99891.41;;;5.46;100.00
77216;BME280;66210;53.282;9.864;2024-03-25T07:32:42;99889.13;;;5.50;100.00
77216;BME280;66210;53.282;9.864;2024-03-25T07:35:08;99882.34;;;5.49;100.00
77216;BME280;66210;53.282;9.864;2024-03-25T07:37:35;99894.88;;;5.48;100.00
77216;BME280;66210;53.282;9.864;2024-03-25T07:40:01;99893.81;;;5.44;100.00
77216;BME280;66210;53.282;9.864;2024-03-25T07:42:26;99887.13;;;5.45;100.00
77216;BME280;66210;53.282;9.864;2024-03-25T07:44:52;99902.91;;;5.40;100.00
77216;BME280;66210;53.282;9.864;2024-03-25T07:47:18;99899.56;;;5.41;100.00
77216;BME280;66210;53.282;9.864;2024-03-25T07:49:44;99904.53;;;5.40;100.00
77216;BME280;66210;53.282;9.864;2024-03-25T07:52:10;99908.00;;;5.42;100.00
77216;BME280;66210;53.282;9.864;2024-03-25T07:54:35;99896.97;;;5.40;100.00
77216;BME280;66210;53.282;9.864;2024-03-25T07:57:04;99899.66;;;5.43;100.00
77216;BME280;66210;53.282;9.864;2024-03-25T07:59:30;99907.47;;;5.48;100.00
77216;BME280;66210;53.282;9.864;2024-03-25T08:01:55;99912.03;;;5.55;100.00
77216;BME280;66210;53.282;9.864;2024-03-25T08:04:21;99913.69;;;5.54;100.00
77216;BME280;66210;53.282;9.864;2024-03-25T08:06:47;99910.38;;;5.55;100.00
77216;BME280;66210;53.282;9.864;2024-03-25T08:09:12;99901.56;;;5.63;100.00
77216;BME280;66210;53.282;9.864;2024-03-25T08:11:41;99903.72;;;5.72;100.00
77216;BME280;66210;53.282;9.864;2024-03-25T08:14:11;99919.41;;;5.83;100.00
77216;BME280;66210;53.282;9.864;2024-03-25T08:16:37;99922.81;;;5.85;100.00
77216;BME280;66210;53.282;9.864;2024-03-25T08:19:04;99922.38;;;5.92;100.00
77216;BME280;66210;53.282;9.864;2024-03-25T08:21:29;99928.25;;;6.08;100.00
77216;BME280;66210;53.282;9.864;2024-03-25T08:23:55;99934.28;;;6.11;100.00
77216;BME280;66210;53.282;9.864;2024-03-25T08:26:21;99928.53;;;6.14;100.00
77216;BME280;66210;53.282;9.864;2024-03-25T08:28:46;99926.41;;;6.21;100.00
77216;BME280;66210;53.282;9.864;2024-03-25T08:31:14;99936.56;;;6.39;100.00
77216;BME280;66210;53.282;9.864;2024-03-25T08:33:40;99932.84;;;6.33;100.00
77216;BME280;66210;53.282;9.864;2024-03-25T08:36:05;99933.69;;;6.50;100.00
77216;BME280;66210;53.282;9.864;2024-03-25T08:38:31;99931.59;;;6.59;100.00
77216;BME280;66210;53.282;9.864;2024-03-25T08:40:57;99935.56;;;6.54;100.00
77216;BME280;66210;53.282;9.864;2024-03-25T08:43:23;99948.31;;;6.73;100.00
77216;BME280;66210;53.282;9.864;2024-03-25T08:45:48;99936.97;;;6.83;100.00
77216;BME280;66210;53.282;9.864;2024-03-25T08:48:14;99943.31;;;6.93;100.00
77216;BME280;66210;53.282;9.864;2024-03-25T08:50:39;99934.16;;;6.95;100.00
77216;BME280;66210;53.282;9.864;2024-03-25T08:53:05;99940.31;;;7.00;100.00
77216;BME280;66210;53.282;9.864;2024-03-25T08:55:31;99933.91;;;7.06;100.00
77216;BME280;66210;53.282;9.864;2024-03-25T08:57:57;99954.34;;;6.95;96.14
77216;BME280;66210;53.282;9.864;2024-03-25T09:00:29;99951.91;;;6.96;98.81
77216;BME280;66210;53.282;9.864;2024-03-25T09:02:55;99951.91;;;6.96;98.99
77216;BME280;66210;53.282;9.864;2024-03-25T09:05:21;99947.88;;;7.00;97.79
77216;BME280;66210;53.282;9.864;2024-03-25T09:07:49;99952.50;;;7.08;99.36
77216;BME280;66210;53.282;9.864;2024-03-25T09:10:18;99942.69;;;7.15;97.91
77216;BME280;66210;53.282;9.864;2024-03-25T09:13:02;99949.31;;;7.31;98.35
77216;BME280;66210;53.282;9.864;2024-03-25T09:15:29;99949.47;;;7.34;95.55
77216;BME280;66210;53.282;9.864;2024-03-25T09:17:55;99956.81;;;7.47;96.21
77216;BME280;66210;53.282;9.864;2024-03-25T09:20:21;99945.88;;;7.48;93.77
77216;BME280;66210;53.282;9.864;2024-03-25T09:22:47;99954.28;;;7.66;93.81
77216;BME280;66210;53.282;9.864;2024-03-25T09:25:16;99956.78;;;7.65;93.15
77216;BME280;66210;53.282;9.864;2024-03-25T09:27:46;99954.16;;;7.63;90.40
77216;BME280;66210;53.282;9.864;2024-03-25T09:30:12;99953.63;;;7.51;88.58
77216;BME280;66210;53.282;9.864;2024-03-25T09:32:40;99947.63;;;7.49;89.37
77216;BME280;66210;53.282;9.864;2024-03-25T09:35:07;99949.44;;;7.52;89.31
77216;BME280;66210;53.282;9.864;2024-03-25T09:37:33;99953.19;;;7.42;88.58
77216;BME280;66210;53.282;9.864;2024-03-25T09:39:59;99954.00;;;7.41;88.55
77216;BME280;66210;53.282;9.864;2024-03-25T09:42:34;99950.41;;;7.55;89.49
77216;BME280;66210;53.282;9.864;2024-03-25T09:45:01;99945.41;;;7.75;89.86
77216;BME280;66210;53.282;9.864;2024-03-25T09:47:27;99957.59;;;7.83;86.20
77216;BME280;66210;53.282;9.864;2024-03-25T09:49:54;99960.97;;;7.84;85.69
77216;BME280;66210;53.282;9.864;2024-03-25T09:52:20;99971.00;;;7.82;85.96
77216;BME280;66210;53.282;9.864;2024-03-25T09:54:46;99982.63;;;7.59;84.55
77216;BME280;66210;53.282;9.864;2024-03-25T09:57:12;99983.25;;;7.18;84.97
77216;BME280;66210;53.282;9.864;2024-03-25T09:59:39;99980.34;;;6.92;87.05
77216;BME280;66210;53.282;9.864;2024-03-25T10:02:05;99982.53;;;6.68;89.53
77216;BME280;66210;53.282;9.864;2024-03-25T10:04:32;99975.25;;;6.74;90.02
77216;BME280;66210;53.282;9.864;2024-03-25T10:06:58;99972.69;;;6.73;91.67
77216;BME280;66210;53.282;9.864;2024-03-25T10:09:24;99974.63;;;6.78;92.43
77216;BME280;66210;53.282;9.864;2024-03-25T10:11:51;99975.47;;;6.79;93.44
77216;BME280;66210;53.282;9.864;2024-03-25T10:14:17;99972.72;;;6.91;93.60
77216;BME280;66210;53.282;9.864;2024-03-25T10:16:48;99966.50;;;7.20;95.90
77216;BME280;66210;53.282;9.864;2024-03-25T10:19:14;99966.53;;;7.57;96.75
77216;BME280;66210;53.282;9.864;2024-03-25T10:21:40;99949.28;;;8.05;96.56
77216;BME280;66210;53.282;9.864;2024-03-25T10:24:06;99952.38;;;8.58;94.09
77216;BME280;66210;53.282;9.864;2024-03-25T10:26:33;99954.97;;;9.02;90.16
77216;BME280;66210;53.282;9.864;2024-03-25T10:29:02;99960.44;;;9.12;86.55
77216;BME280;66210;53.282;9.864;2024-03-25T10:31:29;99965.84;;;8.99;81.70
77216;BME280;66210;53.282;9.864;2024-03-25T10:33:54;99965.78;;;8.77;84.50
77216;BME280;66210;53.282;9.864;2024-03-25T10:36:24;99958.78;;;8.30;82.75
77216;BME280;66210;53.282;9.864;2024-03-25T10:39:00;99965.59;;;8.12;84.50
77216;BME280;66210;53.282;9.864;2024-03-25T10:41:28;99969.97;;;7.77;82.00
77216;BME280;66210;53.282;9.864;2024-03-25T10:43:56;99992.19;;;7.84;84.28
77216;BME280;66210;53.282;9.864;2024-03-25T10:46:24;99982.88;;;7.83;84.42
77216;BME280;66210;53.282;9.864;2024-03-25T10:49:01;99995.72;;;7.88;83.85
77216;BME280;66210;53.282;9.864;2024-03-25T10:51:29;99989.41;;;7.98;83.79
77216;BME280;66210;53.282;9.864;2024-03-25T10:53:55;99987.97;;;8.03;85.05
77216;BME280;66210;53.282;9.864;2024-03-25T10:56:23;99985.09;;;8.15;83.63
77216;BME280;66210;53.282;9.864;2024-03-25T10:58:49;99984.56;;;8.22;83.21
77216;BME280;66210;53.282;9.864;2024-03-25T11:01:17;99976.38;;;8.27;83.16
77216;BME280;66210;53.282;9.864;2024-03-25T11:03:45;99984.56;;;8.22;82.42
77216;BME280;66210;53.282;9.864;2024-03-25T11:06:14;99983.34;;;8.13;81.99
77216;BME280;66210;53.282;9.864;2024-03-25T11:08:40;99979.88;;;8.11;83.27
77216;BME280;66210;53.282;9.864;2024-03-25T11:11:07;99974.72;;;8.08;84.80
77216;BME280;66210;53.282;9.864;2024-03-25T11:13:33;99981.63;;;8.12;85.57
77216;BME280;66210;53.282;9.864;2024-03-25T11:15:58;99981.38;;;8.26;84.25
77216;BME280;66210;53.282;9.864;2024-03-25T11:18:25;99979.34;;;8.38;83.90
77216;BME280;66210;53.282;9.864;2024-03-25T11:21:05;99978.25;;;8.72;83.27
77216;BME280;66210;53.282;9.864;2024-03-25T11:23:40;99967.50;;;8.99;81.72
77216;BME280;66210;53.282;9.864;2024-03-25T11:26:19;99963.47;;;9.25;81.42
77216;BME280;66210;53.282;9.864;2024-03-25T11:28:45;99965.66;;;9.61;79.92
77216;BME280;66210;53.282;9.864;2024-03-25T11:31:11;99959.88;;;9.87;78.16
77216;BME280;66210;53.282;9.864;2024-03-25T11:33:40;99958.09;;;10.09;76.71
77216;BME280;66210;53.282;9.864;2024-03-25T11:36:07;99955.78;;;10.15;76.07
77216;BME280;66210;53.282;9.864;2024-03-25T11:38:32;99950.44;;;10.07;75.06
77216;BME280;66210;53.282;9.864;2024-03-25T11:40:58;99952.13;;;9.84;73.26
77216;BME280;66210;53.282;9.864;2024-03-25T11:43:24;99960.47;;;9.80;72.63
77216;BME280;66210;53.282;9.864;2024-03-25T11:45:50;99943.13;;;9.68;73.50
77216;BME280;66210;53.282;9.864;2024-03-25T11:48:16;99954.00;;;9.42;68.12
77216;BME280;66210;53.282;9.864;2024-03-25T11:50:46;99948.38;;;9.28;69.39
77216;BME280;66210;53.282;9.864;2024-03-25T11:53:13;99950.13;;;9.29;70.34
77216;BME280;66210;53.282;9.864;2024-03-25T11:55:40;99955.78;;;9.23;69.56
77216;BME280;66210;53.282;9.864;2024-03-25T11:58:06;99962.03;;;9.31;70.54
77216;BME280;66210;53.282;9.864;2024-03-25T12:00:33;99945.94;;;9.08;68.17
77216;BME280;66210;53.282;9.864;2024-03-25T12:03:00;99954.81;;;9.20;68.51
77216;BME280;66210;53.282;9.864;2024-03-25T12:05:26;99954.94;;;9.23;70.46
77216;BME280;66210;53.282;9.864;2024-03-25T12:07:51;99950.88;;;9.26;71.40
77216;BME280;66210;53.282;9.864;2024-03-25T12:10:17;99957.88;;;9.33;70.29
77216;BME280;66210;53.282;9.864;2024-03-25T12:13:02;99948.72;;;9.37;69.46
77216;BME280;66210;53.282;9.864;2024-03-25T12:15:28;99953.16;;;9.43;71.09
77216;BME280;66210;53.282;9.864;2024-03-25T12:17:54;99947.44;;;9.48;70.93
77216;BME280;66210;53.282;9.864;2024-03-25T12:20:20;99949.97;;;9.48;70.02
77216;BME280;66210;53.282;9.864;2024-03-25T12:22:46;99950.69;;;9.44;69.71
77216;BME280;66210;53.282;9.864;2024-03-25T12:25:12;99949.19;;;9.27;68.19
77216;BME280;66210;53.282;9.864;2024-03-25T12:27:39;99953.75;;;9.35;69.98
77216;BME280;66210;53.282;9.864;2024-03-25T12:30:07;99948.84;;;9.40;69.67
77216;BME280;66210;53.282;9.864;2024-03-25T12:32:37;99952.88;;;9.35;67.47
77216;BME280;66210;53.282;9.864;2024-03-25T12:35:07;99944.78;;;9.00;69.53
77216;BME280;66210;53.282;9.864;2024-03-25T12:37:33;99955.09;;;8.84;70.85
77216;BME280;66210;53.282;9.864;2024-03-25T12:39:58;99952.22;;;8.74;72.56
77216;BME280;66210;53.282;9.864;2024-03-25T12:42:25;99948.56;;;8.68;74.65
77216;BME280;66210;53.282;9.864;2024-03-25T12:44:53;99948.56;;;8.68;75.06
77216;BME280;66210;53.282;9.864;2024-03-25T12:47:20;99942.13;;;8.76;76.74
77216;BME280;66210;53.282;9.864;2024-03-25T12:49:45;99934.03;;;8.85;76.78
77216;BME280;66210;53.282;9.864;2024-03-25T12:52:11;99924.75;;;8.85;77.45
77216;BME280;66210;53.282;9.864;2024-03-25T12:54:37;99930.56;;;8.83;78.20
77216;BME280;66210;53.282;9.864;2024-03-25T12:57:03;99926.56;;;8.67;78.33
77216;BME280;66210;53.282;9.864;2024-03-25T12:59:28;99923.59;;;8.56;78.30